createdAt,value
2018-07-24T00:00:09.365Z,4.00
2018-07-24T00:01:09.383Z,4.00
2018-07-24T00:02:09.397Z,4.00
2018-07-24T00:03:09.416Z,4.00
2018-07-24T00:04:09.434Z,4.00
2018-07-24T00:05:09.494Z,4.00
2018-07-24T00:06:09.458Z,4.00
2018-07-24T00:07:09.483Z,4.00
2018-07-24T00:08:09.503Z,4.00
2018-07-24T00:09:09.515Z,4.00
2018-07-24T00:10:09.527Z,4.00
2018-07-24T00:11:09.593Z,4.00
2018-07-24T00:12:09.563Z,4.00
2018-07-24T00:13:09.573Z,4.00
2018-07-24T00:14:09.591Z,4.00
2018-07-24T00:15:09.608Z,4.00
2018-07-24T00:16:09.621Z,4.00
2018-07-24T00:17:09.689Z,4.00
2018-07-24T00:18:09.653Z,4.00
2018-07-24T00:19:09.675Z,4.00
2018-07-24T00:20:09.695Z,4.00
2018-07-24T00:21:09.710Z,4.00
2018-07-24T00:22:09.723Z,4.00
2018-07-24T00:23:09.784Z,4.00
2018-07-24T00:24:09.752Z,4.00
2018-07-24T00:25:09.856Z,4.00
2018-07-24T00:26:09.791Z,4.00
2018-07-24T00:27:09.812Z,4.00
2018-07-24T00:28:09.820Z,4.00
2018-07-24T00:29:09.889Z,4.00
2018-07-24T00:30:09.858Z,4.00
2018-07-24T00:31:09.891Z,4.00
2018-07-24T00:32:09.921Z,4.00
2018-07-24T00:33:09.905Z,4.00
2018-07-24T00:34:09.926Z,4.00
2018-07-24T00:35:09.933Z,4.00
2018-07-24T00:36:09.955Z,4.00
2018-07-24T00:37:10.031Z,4.00
2018-07-24T00:38:09.984Z,4.00
2018-07-24T00:39:09.996Z,4.00
2018-07-24T00:40:10.014Z,4.00
2018-07-24T00:41:10.087Z,4.00
2018-07-24T00:42:10.051Z,4.00
2018-07-24T00:43:10.115Z,4.00
2018-07-24T00:44:10.080Z,4.00
2018-07-24T00:45:10.105Z,4.00
2018-07-24T00:46:10.119Z,4.00
2018-07-24T00:47:10.191Z,4.00
2018-07-24T00:48:10.150Z,4.00
2018-07-24T00:49:10.180Z,4.00
2018-07-24T00:50:10.182Z,4.00
2018-07-24T00:51:10.208Z,4.00
2018-07-24T00:52:10.216Z,4.00
2018-07-24T00:53:10.242Z,4.00
2018-07-24T00:54:10.280Z,4.00
2018-07-24T00:55:10.267Z,4.00
2018-07-24T00:56:10.287Z,4.00
2018-07-24T00:57:10.296Z,4.00
2018-07-24T00:58:10.322Z,4.00
2018-07-24T00:59:10.329Z,4.00
2018-07-24T01:00:10.351Z,4.00
2018-07-24T01:01:10.369Z,4.00
2018-07-24T01:02:10.390Z,4.00
2018-07-24T01:03:10.403Z,4.00
2018-07-24T01:04:10.416Z,4.00
2018-07-24T01:05:10.476Z,4.00
2018-07-24T01:06:10.451Z,4.00
2018-07-24T01:07:10.469Z,4.00
2018-07-24T01:08:10.475Z,4.00
2018-07-24T01:09:10.496Z,4.00
2018-07-24T01:10:10.522Z,4.00
2018-07-24T01:11:10.587Z,4.00
2018-07-24T01:12:10.541Z,4.00
2018-07-24T01:13:10.557Z,4.00
2018-07-24T01:14:10.577Z,4.00
2018-07-24T01:15:10.598Z,4.00
2018-07-24T01:16:10.613Z,4.00
2018-07-24T01:17:10.680Z,4.00
2018-07-24T01:18:10.641Z,4.00
2018-07-24T01:19:10.656Z,4.00
2018-07-24T01:20:10.683Z,4.00
2018-07-24T01:21:10.695Z,4.00
2018-07-24T01:22:10.709Z,4.00
2018-07-24T01:23:10.781Z,4.00
2018-07-24T01:24:10.748Z,4.00
2018-07-24T01:25:10.761Z,4.00
2018-07-24T01:26:10.779Z,4.00
2018-07-24T01:27:10.803Z,4.00
2018-07-24T01:28:10.813Z,4.00
2018-07-24T01:29:10.833Z,4.00
2018-07-24T01:30:10.844Z,4.00
2018-07-24T01:31:10.947Z,4.00
2018-07-24T01:32:10.879Z,4.00
2018-07-24T01:33:10.896Z,4.00
2018-07-24T01:34:10.921Z,4.00
2018-07-24T01:35:10.932Z,4.00
2018-07-24T01:36:10.951Z,4.00
2018-07-24T01:37:10.957Z,4.00
2018-07-24T01:38:10.984Z,4.00
2018-07-24T01:39:11.000Z,4.00
2018-07-24T01:40:11.016Z,4.00
2018-07-24T01:41:11.084Z,4.00
2018-07-24T01:42:11.047Z,4.00
2018-07-24T01:43:11.065Z,4.00
2018-07-24T01:44:11.081Z,4.00
2018-07-24T01:45:11.099Z,4.00
2018-07-24T01:46:11.115Z,4.00
2018-07-24T01:47:11.132Z,4.00
2018-07-24T01:48:11.143Z,4.00
2018-07-24T01:49:11.153Z,4.00
2018-07-24T01:50:11.180Z,4.00
2018-07-24T01:51:11.189Z,4.00
2018-07-24T01:52:11.213Z,4.00
2018-07-24T01:53:11.279Z,4.00
2018-07-24T01:54:11.254Z,4.00
2018-07-24T01:55:11.257Z,4.00
2018-07-24T01:56:11.282Z,4.00
2018-07-24T01:57:11.295Z,4.00
2018-07-24T01:58:11.359Z,4.00
2018-07-24T01:59:11.330Z,4.00
2018-07-24T02:00:11.340Z,4.00
2018-07-24T02:01:11.364Z,4.00
2018-07-24T02:02:11.459Z,4.00
2018-07-24T02:03:11.388Z,4.00
2018-07-24T02:04:11.457Z,4.00
2018-07-24T02:05:11.420Z,4.00
2018-07-24T02:06:11.445Z,4.00
2018-07-24T02:07:11.452Z,4.00
2018-07-24T02:08:11.498Z,4.00
2018-07-24T02:09:11.489Z,4.00
2018-07-24T02:10:11.508Z,4.00
2018-07-24T02:11:11.521Z,4.00
2018-07-24T02:12:11.540Z,4.00
2018-07-24T02:13:11.563Z,4.00
2018-07-24T02:14:11.580Z,4.00
2018-07-24T02:15:11.587Z,4.00
2018-07-24T02:16:11.657Z,4.00
2018-07-24T02:17:11.626Z,4.00
2018-07-24T02:18:11.646Z,4.00
2018-07-24T02:19:11.663Z,4.00
2018-07-24T02:20:11.757Z,4.00
2018-07-24T02:21:11.699Z,4.00
2018-07-24T02:22:11.759Z,4.00
2018-07-24T02:23:11.721Z,4.00
2018-07-24T02:24:11.737Z,4.00
2018-07-24T02:25:11.754Z,4.00
2018-07-24T02:26:11.831Z,4.00
2018-07-24T02:27:11.792Z,4.00
2018-07-24T02:28:11.856Z,4.00
2018-07-24T02:29:11.823Z,4.00
2018-07-24T02:30:11.844Z,4.00
2018-07-24T02:31:11.860Z,4.00
2018-07-24T02:32:11.880Z,4.00
2018-07-24T02:33:11.892Z,4.00
2018-07-24T02:34:11.917Z,4.00
2018-07-24T02:35:11.921Z,4.00
2018-07-24T02:36:11.941Z,4.00
2018-07-24T02:37:11.957Z,4.00
2018-07-24T02:38:11.970Z,4.00
2018-07-24T02:39:11.988Z,4.00
2018-07-24T02:40:12.008Z,4.00
2018-07-24T02:41:12.024Z,4.00
2018-07-24T02:42:12.040Z,4.00
2018-07-24T02:43:12.060Z,4.00
2018-07-24T02:44:12.074Z,4.00
2018-07-24T02:45:12.090Z,4.00
2018-07-24T02:46:12.156Z,4.00
2018-07-24T02:47:12.118Z,4.00
2018-07-24T02:48:12.140Z,4.00
2018-07-24T02:49:12.160Z,4.00
2018-07-24T02:50:12.182Z,4.00
2018-07-24T02:51:12.196Z,4.00
2018-07-24T02:52:12.211Z,4.00
2018-07-24T02:53:12.225Z,4.00
2018-07-24T02:54:12.256Z,4.00
2018-07-24T02:55:12.260Z,4.00
2018-07-24T02:56:12.271Z,4.00
2018-07-24T02:57:12.305Z,4.00
2018-07-24T02:58:12.359Z,4.00
2018-07-24T02:59:12.313Z,4.00
2018-07-24T03:00:12.328Z,4.00
2018-07-24T03:01:12.345Z,4.00
2018-07-24T03:02:12.361Z,4.00
2018-07-24T03:03:12.416Z,4.00
2018-07-24T03:04:12.446Z,4.00
2018-07-24T03:05:12.418Z,4.00
2018-07-24T03:06:12.438Z,4.00
2018-07-24T03:07:12.448Z,4.00
2018-07-24T03:08:12.464Z,4.00
2018-07-24T03:09:12.541Z,4.00
2018-07-24T03:10:12.552Z,4.00
2018-07-24T03:11:12.516Z,4.00
2018-07-24T03:12:12.530Z,4.00
2018-07-24T03:13:12.556Z,4.00
2018-07-24T03:14:12.561Z,4.00
2018-07-24T03:15:12.656Z,4.00
2018-07-24T03:16:12.722Z,4.00
2018-07-24T03:17:12.624Z,4.00
2018-07-24T03:18:12.640Z,4.00
2018-07-24T03:19:12.692Z,4.00
2018-07-24T03:20:12.667Z,4.00
2018-07-24T03:21:12.709Z,4.00
2018-07-24T03:22:12.699Z,4.00
2018-07-24T03:23:12.720Z,4.00
2018-07-24T03:24:12.749Z,4.00
2018-07-24T03:25:12.756Z,4.00
2018-07-24T03:26:12.765Z,4.00
2018-07-24T03:27:12.785Z,4.00
2018-07-24T03:28:12.809Z,4.00
2018-07-24T03:29:12.813Z,4.00
2018-07-24T03:30:12.829Z,4.00
2018-07-24T03:31:12.850Z,4.00
2018-07-24T03:32:12.861Z,4.00
2018-07-24T03:33:12.887Z,4.00
2018-07-24T03:34:12.901Z,4.00
2018-07-24T03:35:12.916Z,4.00
2018-07-24T03:36:12.932Z,4.00
2018-07-24T03:37:12.947Z,4.00
2018-07-24T03:38:12.961Z,4.00
2018-07-24T03:39:12.975Z,4.00
2018-07-24T03:40:13.045Z,4.00
2018-07-24T03:41:13.015Z,4.00
2018-07-24T03:42:13.039Z,4.00
2018-07-24T03:43:13.047Z,4.00
2018-07-24T03:44:13.062Z,4.00
2018-07-24T03:45:13.084Z,4.00
2018-07-24T03:46:13.235Z,4.00
2018-07-24T03:47:13.112Z,4.00
2018-07-24T03:48:13.125Z,4.00
2018-07-24T03:49:13.146Z,4.00
2018-07-24T03:50:13.167Z,4.00
2018-07-24T03:51:13.173Z,4.00
2018-07-24T03:52:13.219Z,4.00
2018-07-24T03:53:13.216Z,4.00
2018-07-24T03:54:13.235Z,4.00
2018-07-24T03:55:13.255Z,4.00
2018-07-24T03:56:13.263Z,4.00
2018-07-24T03:57:13.286Z,4.00
2018-07-24T03:58:13.419Z,4.00
2018-07-24T03:59:13.315Z,4.00
2018-07-24T04:00:13.329Z,4.00
2018-07-24T04:01:13.352Z,4.00
2018-07-24T04:02:13.419Z,4.00
2018-07-24T04:03:13.389Z,4.00
2018-07-24T04:04:13.451Z,4.00
2018-07-24T04:05:13.420Z,4.00
2018-07-24T04:06:13.435Z,4.00
2018-07-24T04:07:13.449Z,4.00
2018-07-24T04:08:13.468Z,4.00
2018-07-24T04:09:13.483Z,4.00
2018-07-24T04:10:13.549Z,4.00
2018-07-24T04:11:13.509Z,4.00
2018-07-24T04:12:13.528Z,4.00
2018-07-24T04:13:13.540Z,4.00
2018-07-24T04:14:13.563Z,4.00
2018-07-24T04:15:13.583Z,4.00
2018-07-24T04:16:13.647Z,4.00
2018-07-24T04:17:13.618Z,4.00
2018-07-24T04:18:13.624Z,4.00
2018-07-24T04:19:13.659Z,4.00
2018-07-24T04:20:13.663Z,4.00
2018-07-24T04:21:13.679Z,4.00
2018-07-24T04:22:13.817Z,4.00
2018-07-24T04:23:13.709Z,4.00
2018-07-24T04:24:13.720Z,4.00
2018-07-24T04:25:13.741Z,4.00
2018-07-24T04:26:13.761Z,4.00
2018-07-24T04:27:13.776Z,4.00
2018-07-24T04:28:13.871Z,4.00
2018-07-24T04:29:13.804Z,4.00
2018-07-24T04:30:13.828Z,4.00
2018-07-24T04:31:13.881Z,4.00
2018-07-24T04:32:13.862Z,4.00
2018-07-24T04:33:13.882Z,4.00
2018-07-24T04:34:13.969Z,4.00
2018-07-24T04:35:13.904Z,4.00
2018-07-24T04:36:13.930Z,4.00
2018-07-24T04:37:13.951Z,4.00
2018-07-24T04:38:13.957Z,4.00
2018-07-24T04:39:13.989Z,4.00
2018-07-24T04:40:14.077Z,4.00
2018-07-24T04:41:14.015Z,4.00
2018-07-24T04:42:14.026Z,4.00
2018-07-24T04:43:14.045Z,4.00
2018-07-24T04:44:14.067Z,4.00
2018-07-24T04:45:14.080Z,4.00
2018-07-24T04:46:14.173Z,4.00
2018-07-24T04:47:14.109Z,4.00
2018-07-24T04:48:14.121Z,4.00
2018-07-24T04:49:14.147Z,4.00
2018-07-24T04:50:14.159Z,4.00
2018-07-24T04:51:14.183Z,4.00
2018-07-24T04:52:14.310Z,4.00
2018-07-24T04:53:14.205Z,4.00
2018-07-24T04:54:14.223Z,0.00
2018-07-24T04:55:14.239Z,0.00
2018-07-24T04:56:14.252Z,0.00
2018-07-24T04:57:14.276Z,0.00
2018-07-24T04:58:14.340Z,0.00
2018-07-24T04:59:14.314Z,0.00
2018-07-24T05:00:14.321Z,0.00
2018-07-24T05:01:14.341Z,0.00
2018-07-24T05:02:14.356Z,4.00
2018-07-24T05:03:14.420Z,4.00
2018-07-24T05:04:14.446Z,4.00
2018-07-24T05:05:14.409Z,0.00
2018-07-24T05:06:14.434Z,4.00
2018-07-24T05:07:14.438Z,4.00
2018-07-24T05:08:14.463Z,4.00
2018-07-24T05:09:14.474Z,8.00
2018-07-24T05:10:14.552Z,4.00
2018-07-24T05:11:14.508Z,4.00
2018-07-24T05:12:14.526Z,4.00
2018-07-24T05:13:14.539Z,12.00
2018-07-24T05:14:14.553Z,8.00
2018-07-24T05:15:14.575Z,12.00
2018-07-24T05:16:14.640Z,16.00
2018-07-24T05:17:14.608Z,16.00
2018-07-24T05:18:14.631Z,20.00
2018-07-24T05:19:14.636Z,20.00
2018-07-24T05:20:14.659Z,28.00
2018-07-24T05:21:14.673Z,32.00
2018-07-24T05:22:14.687Z,32.00
2018-07-24T05:23:14.780Z,40.00
2018-07-24T05:24:14.718Z,44.00
2018-07-24T05:25:14.738Z,48.00
2018-07-24T05:26:14.819Z,56.00
2018-07-24T05:27:14.769Z,60.00
2018-07-24T05:28:14.833Z,68.00
2018-07-24T05:29:14.803Z,72.00
2018-07-24T05:30:14.822Z,76.00
2018-07-24T05:31:14.839Z,84.00
2018-07-24T05:32:14.855Z,88.00
2018-07-24T05:33:14.947Z,96.00
2018-07-24T05:34:14.936Z,108.00
2018-07-24T05:35:14.900Z,116.00
2018-07-24T05:36:14.917Z,132.00
2018-07-24T05:37:14.931Z,144.00
2018-07-24T05:38:14.947Z,156.00
2018-07-24T05:39:14.975Z,172.00
2018-07-24T05:40:15.048Z,184.00
2018-07-24T05:41:15.010Z,196.00
2018-07-24T05:42:15.114Z,212.00
2018-07-24T05:43:15.042Z,224.00
2018-07-24T05:44:15.055Z,244.00
2018-07-24T05:45:15.068Z,260.00
2018-07-24T05:46:15.141Z,272.00
2018-07-24T05:47:15.105Z,292.00
2018-07-24T05:48:15.188Z,320.00
2018-07-24T05:49:15.140Z,332.00
2018-07-24T05:50:15.158Z,368.00
2018-07-24T05:51:15.174Z,412.00
2018-07-24T05:52:15.253Z,452.00
2018-07-24T05:53:15.204Z,476.00
2018-07-24T05:54:15.302Z,472.00
2018-07-24T05:55:15.240Z,472.00
2018-07-24T05:56:15.257Z,488.00
2018-07-24T05:57:15.277Z,504.00
2018-07-24T05:58:15.357Z,532.00
2018-07-24T05:59:15.312Z,560.00
2018-07-24T06:00:15.319Z,576.00
2018-07-24T06:01:15.336Z,604.00
2018-07-24T06:02:15.352Z,628.00
2018-07-24T06:03:15.369Z,652.00
2018-07-24T06:04:15.434Z,684.00
2018-07-24T06:05:15.401Z,716.00
2018-07-24T06:06:15.419Z,748.00
2018-07-24T06:07:15.474Z,780.00
2018-07-24T06:08:15.456Z,808.00
2018-07-24T06:09:15.478Z,832.00
2018-07-24T06:10:15.540Z,856.00
2018-07-24T06:11:15.507Z,880.00
2018-07-24T06:12:15.528Z,900.00
2018-07-24T06:13:15.601Z,928.00
2018-07-24T06:14:15.558Z,952.00
2018-07-24T06:15:15.580Z,976.00
2018-07-24T06:16:15.640Z,992.00
2018-07-24T06:17:15.609Z,1016.00
2018-07-24T06:18:15.632Z,988.00
2018-07-24T06:19:15.638Z,1044.00
2018-07-24T06:20:15.656Z,1088.00
2018-07-24T06:21:15.675Z,1088.00
2018-07-24T06:22:15.737Z,1148.00
2018-07-24T06:23:15.751Z,1200.00
2018-07-24T06:24:15.779Z,1264.00
2018-07-24T06:25:15.739Z,1236.00
2018-07-24T06:26:15.758Z,1344.00
2018-07-24T06:27:15.780Z,1396.00
2018-07-24T06:28:15.851Z,1440.00
2018-07-24T06:29:15.851Z,1456.00
2018-07-24T06:30:15.847Z,1524.00
2018-07-24T06:31:15.846Z,1548.00
2018-07-24T06:32:15.866Z,1680.00
2018-07-24T06:33:15.886Z,1844.00
2018-07-24T06:34:15.945Z,1864.00
2018-07-24T06:35:15.907Z,1728.00
2018-07-24T06:36:15.926Z,1744.00
2018-07-24T06:37:15.939Z,1716.00
2018-07-24T06:38:15.960Z,1884.00
2018-07-24T06:39:15.984Z,1896.00
2018-07-24T06:40:16.047Z,2012.00
2018-07-24T06:41:16.021Z,2148.00
2018-07-24T06:42:16.031Z,2360.00
2018-07-24T06:43:16.115Z,2700.00
2018-07-24T06:44:16.091Z,3148.00
2018-07-24T06:45:16.078Z,3524.00
2018-07-24T06:46:16.101Z,3792.00
2018-07-24T06:47:16.113Z,3756.00
2018-07-24T06:48:16.129Z,3732.00
2018-07-24T06:49:16.178Z,3700.00
2018-07-24T06:50:16.170Z,3508.00
2018-07-24T06:51:16.268Z,3324.00
2018-07-24T06:52:16.244Z,1544.00
2018-07-24T06:53:16.224Z,1388.00
2018-07-24T06:54:16.238Z,1372.00
2018-07-24T06:55:16.304Z,1156.00
2018-07-24T06:56:16.270Z,1112.00
2018-07-24T06:57:16.287Z,1064.00
2018-07-24T06:58:16.351Z,1044.00
2018-07-24T06:59:16.324Z,1140.00
2018-07-24T07:00:16.342Z,1264.00
2018-07-24T07:01:16.361Z,1564.00
2018-07-24T07:02:16.466Z,1940.00
2018-07-24T07:03:16.421Z,4736.00
2018-07-24T07:04:16.459Z,2944.00
2018-07-24T07:05:16.428Z,5508.00
2018-07-24T07:06:16.439Z,5612.00
2018-07-24T07:07:16.455Z,5288.00
2018-07-24T07:08:16.557Z,4168.00
2018-07-24T07:09:16.496Z,5400.00
2018-07-24T07:10:16.661Z,4548.00
2018-07-24T07:11:16.519Z,2128.00
2018-07-24T07:12:16.540Z,2084.00
2018-07-24T07:13:16.663Z,2072.00
2018-07-24T07:14:16.613Z,2380.00
2018-07-24T07:15:16.595Z,1848.00
2018-07-24T07:16:16.724Z,1940.00
2018-07-24T07:17:16.626Z,1800.00
2018-07-24T07:18:16.662Z,1984.00
2018-07-24T07:19:16.662Z,2500.00
2018-07-24T07:20:16.687Z,6596.00
2018-07-24T07:21:16.702Z,2788.00
2018-07-24T07:22:16.766Z,2968.00
2018-07-24T07:23:16.742Z,3096.00
2018-07-24T07:24:16.754Z,5800.00
2018-07-24T07:25:16.779Z,7236.00
2018-07-24T07:26:16.856Z,7272.00
2018-07-24T07:27:16.822Z,7740.00
2018-07-24T07:28:16.873Z,7608.00
2018-07-24T07:29:16.913Z,4592.00
2018-07-24T07:30:16.851Z,3196.00
2018-07-24T07:31:16.879Z,3188.00
2018-07-24T07:32:16.970Z,7700.00
2018-07-24T07:33:16.909Z,2784.00
2018-07-24T07:34:16.977Z,2600.00
2018-07-24T07:35:16.945Z,2316.00
2018-07-24T07:36:16.955Z,2232.00
2018-07-24T07:37:16.982Z,2132.00
2018-07-24T07:38:17.001Z,2132.00
2018-07-24T07:39:17.084Z,2284.00
2018-07-24T07:40:17.085Z,2400.00
2018-07-24T07:41:17.057Z,2924.00
2018-07-24T07:42:17.069Z,3396.00
2018-07-24T07:43:17.081Z,8216.00
2018-07-24T07:44:17.113Z,8688.00
2018-07-24T07:45:17.155Z,3512.00
2018-07-24T07:46:17.254Z,9284.00
2018-07-24T07:47:17.151Z,3976.00
2018-07-24T07:48:17.167Z,7136.00
2018-07-24T07:49:17.198Z,9692.00
2018-07-24T07:50:17.217Z,8236.00
2018-07-24T07:51:17.230Z,4228.00
2018-07-24T07:52:17.296Z,3916.00
2018-07-24T07:53:17.259Z,3872.00
2018-07-24T07:54:17.277Z,3532.00
2018-07-24T07:55:17.295Z,3548.00
2018-07-24T07:56:17.313Z,3508.00
2018-07-24T07:57:17.334Z,5604.00
2018-07-24T07:58:17.347Z,10592.00
2018-07-24T07:59:17.370Z,4920.00
2018-07-24T08:00:17.386Z,4588.00
2018-07-24T08:01:17.407Z,5248.00
2018-07-24T08:02:17.424Z,5800.00
2018-07-24T08:03:17.491Z,5448.00
2018-07-24T08:04:17.609Z,5408.00
2018-07-24T08:05:17.476Z,8152.00
2018-07-24T08:06:17.496Z,5780.00
2018-07-24T08:07:17.509Z,5628.00
2018-07-24T08:08:17.542Z,4812.00
2018-07-24T08:09:17.569Z,7324.00
2018-07-24T08:10:17.631Z,5424.00
2018-07-24T08:11:17.601Z,4540.00
2018-07-24T08:12:17.682Z,4072.00
2018-07-24T08:13:17.791Z,3696.00
2018-07-24T08:14:17.648Z,3216.00
2018-07-24T08:15:17.668Z,2736.00
2018-07-24T08:16:17.743Z,2484.00
2018-07-24T08:17:17.700Z,2372.00
2018-07-24T08:18:17.726Z,2280.00
2018-07-24T08:19:17.735Z,2212.00
2018-07-24T08:20:17.762Z,2116.00
2018-07-24T08:21:17.809Z,1992.00
2018-07-24T08:22:17.884Z,1948.00
2018-07-24T08:23:17.810Z,2028.00
2018-07-24T08:24:17.834Z,2172.00
2018-07-24T08:25:17.850Z,2268.00
2018-07-24T08:26:17.866Z,2308.00
2018-07-24T08:27:17.957Z,2248.00
2018-07-24T08:28:17.952Z,1928.00
2018-07-24T08:29:17.928Z,1648.00
2018-07-24T08:30:17.951Z,1564.00
2018-07-24T08:31:17.961Z,1620.00
2018-07-24T08:32:17.981Z,1772.00
2018-07-24T08:33:18.006Z,1992.00
2018-07-24T08:34:18.017Z,2288.00
2018-07-24T08:35:18.043Z,2580.00
2018-07-24T08:36:18.052Z,3468.00
2018-07-24T08:37:18.071Z,2924.00
2018-07-24T08:38:18.098Z,2920.00
2018-07-24T08:39:18.111Z,3012.00
2018-07-24T08:40:18.124Z,3084.00
2018-07-24T08:41:18.150Z,3188.00
2018-07-24T08:42:18.174Z,3392.00
2018-07-24T08:43:18.180Z,3492.00
2018-07-24T08:44:18.202Z,3376.00
2018-07-24T08:45:18.222Z,3548.00
2018-07-24T08:46:18.233Z,4040.00
2018-07-24T08:47:18.252Z,4744.00
2018-07-24T08:48:18.310Z,5488.00
2018-07-24T08:49:18.436Z,6164.00
2018-07-24T08:50:18.308Z,6484.00
2018-07-24T08:51:18.324Z,6240.00
2018-07-24T08:52:18.541Z,6332.00
2018-07-24T08:53:18.727Z,6156.00
2018-07-24T08:54:18.590Z,5948.00
2018-07-24T08:55:18.913Z,5672.00
2018-07-24T08:56:18.427Z,4784.00
2018-07-24T08:57:18.490Z,4884.00
2018-07-24T08:58:18.565Z,5128.00
2018-07-24T08:59:18.476Z,4780.00
2018-07-24T09:00:18.494Z,4300.00
2018-07-24T09:01:18.516Z,4192.00
2018-07-24T09:02:18.535Z,3012.00
2018-07-24T09:03:18.605Z,2856.00
2018-07-24T09:04:18.671Z,3016.00
2018-07-24T09:05:18.581Z,3212.00
2018-07-24T09:06:18.611Z,3232.00
2018-07-24T09:07:18.628Z,2968.00
2018-07-24T09:08:18.651Z,2488.00
2018-07-24T09:09:18.661Z,2032.00
2018-07-24T09:10:18.793Z,1884.00
2018-07-24T09:11:18.697Z,2052.00
2018-07-24T09:12:18.714Z,2340.00
2018-07-24T09:13:18.733Z,2564.00
2018-07-24T09:14:18.749Z,2740.00
2018-07-24T09:15:18.771Z,2872.00
2018-07-24T09:16:18.845Z,2864.00
2018-07-24T09:17:18.808Z,2876.00
2018-07-24T09:18:18.835Z,3040.00
2018-07-24T09:19:18.844Z,3408.00
2018-07-24T09:20:18.872Z,9120.00
2018-07-24T09:21:18.886Z,13624.00
2018-07-24T09:22:18.953Z,13744.00
2018-07-24T09:23:18.957Z,13804.00
2018-07-24T09:24:18.942Z,13804.00
2018-07-24T09:25:18.962Z,13152.00
2018-07-24T09:26:18.978Z,13828.00
2018-07-24T09:27:19.001Z,5160.00
2018-07-24T09:28:19.017Z,7572.00
2018-07-24T09:29:19.039Z,13872.00
2018-07-24T09:30:19.049Z,14112.00
2018-07-24T09:31:19.070Z,14076.00
2018-07-24T09:32:19.089Z,14280.00
2018-07-24T09:33:19.167Z,14292.00
2018-07-24T09:34:19.127Z,14492.00
2018-07-24T09:35:19.196Z,14944.00
2018-07-24T09:36:19.172Z,15328.00
2018-07-24T09:37:19.189Z,15872.00
2018-07-24T09:38:19.207Z,16128.00
2018-07-24T09:39:19.280Z,15712.00
2018-07-24T09:40:19.292Z,10608.00
2018-07-24T09:41:19.295Z,4528.00
2018-07-24T09:42:19.287Z,4340.00
2018-07-24T09:43:19.316Z,5336.00
2018-07-24T09:44:19.341Z,4512.00
2018-07-24T09:45:19.407Z,4164.00
2018-07-24T09:46:19.373Z,4048.00
2018-07-24T09:47:19.423Z,12128.00
2018-07-24T09:48:19.413Z,15264.00
2018-07-24T09:49:19.447Z,15328.00
2018-07-24T09:50:19.459Z,15648.00
2018-07-24T09:51:19.484Z,4084.00
2018-07-24T09:52:19.497Z,15744.00
2018-07-24T09:53:19.535Z,12616.00
2018-07-24T09:54:19.547Z,14880.00
2018-07-24T09:55:19.564Z,13160.00
2018-07-24T09:56:19.641Z,17024.00
2018-07-24T09:57:19.649Z,17248.00
2018-07-24T09:58:19.619Z,8044.00
2018-07-24T09:59:19.708Z,4572.00
2018-07-24T10:00:19.674Z,4072.00
2018-07-24T10:01:19.690Z,3820.00
2018-07-24T10:02:19.712Z,3788.00
2018-07-24T10:03:19.785Z,3788.00
2018-07-24T10:04:19.751Z,3848.00
2018-07-24T10:05:19.800Z,3752.00
2018-07-24T10:06:19.795Z,3968.00
2018-07-24T10:07:19.809Z,4200.00
2018-07-24T10:08:19.835Z,4796.00
2018-07-24T10:09:19.903Z,7604.00
2018-07-24T10:10:19.877Z,12652.00
2018-07-24T10:11:19.896Z,17536.00
2018-07-24T10:12:19.920Z,16800.00
2018-07-24T10:13:20.101Z,17440.00
2018-07-24T10:14:19.962Z,17024.00
2018-07-24T10:15:20.040Z,17568.00
2018-07-24T10:16:20.011Z,18560.00
2018-07-24T10:17:20.017Z,14976.00
2018-07-24T10:18:20.047Z,6196.00
2018-07-24T10:19:20.056Z,6168.00
2018-07-24T10:20:20.081Z,5508.00
2018-07-24T10:21:20.157Z,4780.00
2018-07-24T10:22:20.197Z,12536.00
2018-07-24T10:23:20.152Z,15616.00
2018-07-24T10:24:20.245Z,16032.00
2018-07-24T10:25:20.196Z,15968.00
2018-07-24T10:26:20.212Z,15776.00
2018-07-24T10:27:20.291Z,15712.00
2018-07-24T10:28:20.256Z,15776.00
2018-07-24T10:29:20.280Z,15936.00
2018-07-24T10:30:20.353Z,16544.00
2018-07-24T10:31:20.313Z,15616.00
2018-07-24T10:32:20.343Z,16960.00
2018-07-24T10:33:20.409Z,6568.00
2018-07-24T10:34:20.375Z,4528.00
2018-07-24T10:35:20.408Z,5044.00
2018-07-24T10:36:20.491Z,17184.00
2018-07-24T10:37:20.445Z,18432.00
2018-07-24T10:38:20.472Z,19040.00
2018-07-24T10:39:20.489Z,11168.00
2018-07-24T10:40:20.516Z,5864.00
2018-07-24T10:41:20.536Z,5272.00
2018-07-24T10:42:20.570Z,5564.00
2018-07-24T10:43:20.575Z,6112.00
2018-07-24T10:44:20.599Z,6276.00
2018-07-24T10:45:20.615Z,15200.00
2018-07-24T10:46:20.629Z,13816.00
2018-07-24T10:47:20.671Z,16928.00
2018-07-24T10:48:20.686Z,12776.00
2018-07-24T10:49:20.748Z,5076.00
2018-07-24T10:50:20.716Z,5204.00
2018-07-24T10:51:20.743Z,5656.00
2018-07-24T10:52:20.769Z,15648.00
2018-07-24T10:53:20.778Z,10324.00
2018-07-24T10:54:20.808Z,17408.00
2018-07-24T10:55:20.919Z,17024.00
2018-07-24T10:56:20.845Z,16832.00
2018-07-24T10:57:20.917Z,16480.00
2018-07-24T10:58:20.886Z,16384.00
2018-07-24T10:59:20.907Z,16352.00
2018-07-24T11:00:20.929Z,16448.00
2018-07-24T11:01:21.004Z,16640.00
2018-07-24T11:02:20.969Z,16960.00
2018-07-24T11:03:20.992Z,17472.00
2018-07-24T11:04:21.017Z,16512.00
2018-07-24T11:05:21.139Z,15584.00
2018-07-24T11:06:21.064Z,15840.00
2018-07-24T11:07:21.152Z,16352.00
2018-07-24T11:08:21.097Z,16320.00
2018-07-24T11:09:21.127Z,16160.00
2018-07-24T11:10:21.144Z,16608.00
2018-07-24T11:11:21.167Z,17184.00
2018-07-24T11:12:21.195Z,15968.00
2018-07-24T11:13:21.216Z,17952.00
2018-07-24T11:14:21.232Z,5508.00
2018-07-24T11:15:21.253Z,4696.00
2018-07-24T11:16:21.281Z,4468.00
2018-07-24T11:17:21.299Z,4312.00
2018-07-24T11:18:21.324Z,4224.00
2018-07-24T11:19:21.353Z,4884.00
2018-07-24T11:20:21.450Z,10524.00
2018-07-24T11:21:21.385Z,16736.00
2018-07-24T11:22:21.481Z,16832.00
2018-07-24T11:23:21.558Z,16928.00
2018-07-24T11:24:21.449Z,16960.00
2018-07-24T11:25:21.472Z,16864.00
2018-07-24T11:26:21.547Z,16832.00
2018-07-24T11:27:21.590Z,16768.00
2018-07-24T11:28:21.609Z,16672.00
2018-07-24T11:29:21.572Z,16448.00
2018-07-24T11:30:21.580Z,16384.00
2018-07-24T11:31:21.611Z,16320.00
2018-07-24T11:32:21.673Z,16256.00
2018-07-24T11:33:21.779Z,16512.00
2018-07-24T11:34:21.671Z,16832.00
2018-07-24T11:35:21.685Z,17248.00
2018-07-24T11:36:21.795Z,8232.00
2018-07-24T11:37:21.733Z,4380.00
2018-07-24T11:38:21.809Z,16832.00
2018-07-24T11:39:21.825Z,17024.00
2018-07-24T11:40:21.818Z,17344.00
2018-07-24T11:41:21.825Z,4600.00
2018-07-24T11:42:21.848Z,4624.00
2018-07-24T11:43:21.868Z,17248.00
2018-07-24T11:44:21.941Z,17120.00
2018-07-24T11:45:21.908Z,17440.00
2018-07-24T11:46:21.932Z,18144.00
2018-07-24T11:47:21.961Z,16736.00
2018-07-24T11:48:21.983Z,11788.00
2018-07-24T11:49:21.997Z,5944.00
2018-07-24T11:50:22.082Z,5260.00
2018-07-24T11:51:22.070Z,5020.00
2018-07-24T11:52:22.075Z,5456.00
2018-07-24T11:53:22.090Z,18048.00
2018-07-24T11:54:22.118Z,6588.00
2018-07-24T11:55:22.135Z,6380.00
2018-07-24T11:56:22.167Z,18496.00
2018-07-24T11:57:22.182Z,17472.00
2018-07-24T11:58:22.192Z,18080.00
2018-07-24T11:59:22.227Z,16832.00
2018-07-24T12:00:22.248Z,6796.00
2018-07-24T12:01:22.275Z,5696.00
2018-07-24T12:02:22.286Z,15328.00
2018-07-24T12:03:22.356Z,16992.00
2018-07-24T12:04:22.365Z,16800.00
2018-07-24T12:05:22.355Z,18208.00
2018-07-24T12:06:22.377Z,7508.00
2018-07-24T12:07:22.393Z,5080.00
2018-07-24T12:08:22.469Z,16672.00
2018-07-24T12:09:22.437Z,16832.00
2018-07-24T12:10:22.519Z,14596.00
2018-07-24T12:11:22.483Z,16160.00
2018-07-24T12:12:22.511Z,16000.00
2018-07-24T12:13:22.534Z,15904.00
2018-07-24T12:14:22.547Z,15776.00
2018-07-24T12:15:22.571Z,15584.00
2018-07-24T12:16:22.679Z,15648.00
2018-07-24T12:17:22.618Z,15808.00
2018-07-24T12:18:22.638Z,15680.00
2018-07-24T12:19:22.652Z,15712.00
2018-07-24T12:20:22.734Z,15776.00
2018-07-24T12:21:22.707Z,7216.00
2018-07-24T12:22:22.750Z,17088.00
2018-07-24T12:23:22.754Z,4408.00
2018-07-24T12:24:22.768Z,3744.00
2018-07-24T12:25:22.788Z,3404.00
2018-07-24T12:26:22.822Z,3480.00
2018-07-24T12:27:22.837Z,9952.00
2018-07-24T12:28:22.859Z,15968.00
2018-07-24T12:29:22.882Z,15712.00
2018-07-24T12:30:22.901Z,15616.00
2018-07-24T12:31:22.925Z,15520.00
2018-07-24T12:32:22.999Z,15488.00